createdAt,value
2018-02-12T00:00:04.760Z,1.00
2018-02-12T00:02:30.741Z,1.00
2018-02-12T00:04:56.702Z,0.90
2018-02-12T00:07:23.444Z,1.10
2018-02-12T00:09:50.156Z,1.20
2018-02-12T00:12:16.128Z,1.20
2018-02-12T00:14:42.854Z,1.30
2018-02-12T00:17:08.924Z,1.30
2018-02-12T00:19:35.692Z,1.50
2018-02-12T00:22:01.663Z,1.40
2018-02-12T00:24:27.657Z,1.70
2018-02-12T00:26:54.392Z,1.80
2018-02-12T00:29:20.362Z,1.80
2018-02-12T00:31:46.362Z,1.80
2018-02-12T00:34:12.355Z,1.70
2018-02-12T00:36:38.397Z,1.50
2018-02-12T00:39:04.439Z,1.50
2018-02-12T00:41:30.402Z,1.40
2018-02-12T00:43:56.379Z,1.20
2018-02-12T00:46:22.361Z,1.00
2018-02-12T00:48:49.840Z,1.30
2018-02-12T00:51:15.824Z,1.30
2018-02-12T00:53:41.806Z,1.60
2018-02-12T00:56:08.537Z,2.50
2018-02-12T00:58:34.559Z,2.50
2018-02-12T01:01:00.544Z,2.60
2018-02-12T01:03:27.270Z,2.80
2018-02-12T01:05:53.225Z,2.80
2018-02-12T01:08:19.204Z,2.70
2018-02-12T01:10:45.199Z,2.50
2018-02-12T01:13:11.175Z,2.30
2018-02-12T01:15:37.220Z,2.00
2018-02-12T01:18:03.252Z,1.80
2018-02-12T01:20:29.304Z,1.50
2018-02-12T01:22:55.260Z,1.30
2018-02-12T01:25:21.214Z,1.10
2018-02-12T01:27:47.197Z,1.00
2018-02-12T01:30:13.178Z,0.90
2018-02-12T01:32:39.149Z,0.90
2018-02-12T01:35:05.176Z,0.90
2018-02-12T01:37:31.942Z,0.80
2018-02-12T01:39:57.922Z,0.80
2018-02-12T01:42:23.887Z,0.80
2018-02-12T01:44:49.867Z,0.80
2018-02-12T01:47:15.838Z,0.80
2018-02-12T01:49:41.806Z,0.80
2018-02-12T01:52:08.511Z,1.10
2018-02-12T01:54:34.524Z,1.10
2018-02-12T01:57:00.502Z,1.20
2018-02-12T01:59:26.456Z,1.30
2018-02-12T02:01:53.164Z,1.60
2018-02-12T02:04:19.141Z,1.50
2018-02-12T02:06:45.867Z,1.80
2018-02-12T02:09:11.877Z,1.80
2018-02-12T02:11:38.133Z,2.00
2018-02-12T02:14:04.113Z,2.10
2018-02-12T02:16:30.837Z,2.10
2018-02-12T02:18:56.807Z,2.10
2018-02-12T02:21:23.520Z,2.20
2018-02-12T02:23:49.506Z,2.20
2018-02-12T02:26:15.503Z,2.10
2018-02-12T02:28:42.958Z,1.90
2018-02-12T02:31:08.959Z,1.90
2018-02-12T02:33:34.978Z,1.80
2018-02-12T02:36:00.959Z,1.70
2018-02-12T02:38:26.920Z,1.50
2018-02-12T02:40:52.900Z,1.20
2018-02-12T02:43:18.878Z,1.00
2018-02-12T02:45:44.851Z,0.70
2018-02-12T02:48:11.567Z,0.40
2018-02-12T02:50:37.567Z,0.40
2018-02-12T02:53:03.560Z,0.30
2018-02-12T02:55:30.290Z,0.50
2018-02-12T02:57:56.288Z,0.40
2018-02-12T03:00:22.261Z,0.70
2018-02-12T03:02:48.234Z,0.70
2018-02-12T03:05:14.928Z,0.40
2018-02-12T03:07:40.905Z,0.40
2018-02-12T03:10:07.619Z,0.50
2018-02-12T03:12:33.598Z,0.50
2018-02-12T03:15:00.332Z,0.90
2018-02-12T03:17:26.307Z,0.90
2018-02-12T03:19:52.296Z,1.10
2018-02-12T03:22:18.296Z,1.40
2018-02-12T03:24:44.276Z,1.70
2018-02-12T03:27:10.255Z,1.80
2018-02-12T03:29:36.237Z,1.60
2018-02-12T03:32:02.220Z,1.40
2018-02-12T03:34:28.221Z,1.30
2018-02-12T03:36:54.986Z,1.30
2018-02-12T03:39:21.706Z,1.40
2018-02-12T03:41:47.684Z,1.30
2018-02-12T03:44:13.664Z,1.50
2018-02-12T03:46:39.659Z,1.60
2018-02-12T03:49:05.654Z,1.70
2018-02-12T03:51:32.399Z,2.00
2018-02-12T03:53:58.440Z,2.00
2018-02-12T03:56:24.454Z,1.80
2018-02-12T03:58:50.416Z,1.80
2018-02-12T04:01:16.412Z,1.80
2018-02-12T04:03:42.387Z,1.90
2018-02-12T04:06:08.364Z,1.90
2018-02-12T04:08:34.335Z,1.90
2018-02-12T04:11:00.353Z,1.90
2018-02-12T04:13:26.379Z,1.90
2018-02-12T04:15:52.351Z,2.00
2018-02-12T04:18:18.333Z,2.10
2018-02-12T04:20:44.288Z,2.00
2018-02-12T04:23:10.263Z,1.90
2018-02-12T04:25:36.240Z,1.70
2018-02-12T04:28:02.250Z,1.60
2018-02-12T04:30:29.027Z,1.20
2018-02-12T04:32:55.056Z,1.20
2018-02-12T04:35:21.038Z,1.00
2018-02-12T04:37:47.020Z,1.00
2018-02-12T04:40:13.735Z,0.80
2018-02-12T04:42:39.736Z,0.80
2018-02-12T04:45:05.706Z,0.90
2018-02-12T04:47:31.741Z,1.00
2018-02-12T04:49:57.772Z,1.00
2018-02-12T04:52:23.794Z,1.00
2018-02-12T04:54:49.759Z,0.90
2018-02-12T04:57:15.748Z,1.20
2018-02-12T04:59:41.720Z,1.50
2018-02-12T05:02:07.700Z,1.60
2018-02-12T05:04:33.709Z,1.60
2018-02-12T05:06:59.740Z,1.60
2018-02-12T05:09:25.754Z,1.40
2018-02-12T05:11:51.729Z,1.60
2018-02-12T05:14:18.433Z,1.80
2018-02-12T05:16:44.440Z,1.70
2018-02-12T05:19:10.415Z,2.00
2018-02-12T05:21:43.308Z,2.00
2018-02-12T05:24:09.276Z,2.20
2018-02-12T05:26:35.253Z,2.10
2018-02-12T05:29:01.224Z,2.00
2018-02-12T05:31:27.297Z,2.00
2018-02-12T05:33:54.123Z,2.10
2018-02-12T05:36:20.097Z,2.10
2018-02-12T05:38:46.850Z,2.20
2018-02-12T05:41:13.579Z,2.20
2018-02-12T05:43:39.565Z,2.20
2018-02-12T05:46:05.548Z,2.20
2018-02-12T05:48:31.557Z,2.20
2018-02-12T05:50:57.592Z,2.30
2018-02-12T05:53:23.705Z,2.30
2018-02-12T05:55:49.671Z,2.30
2018-02-12T05:58:15.665Z,2.20
2018-02-12T06:00:41.635Z,2.40
2018-02-12T06:03:07.626Z,2.50
2018-02-12T06:05:34.337Z,2.20
2018-02-12T06:08:00.425Z,2.20
2018-02-12T06:10:26.444Z,2.10
2018-02-12T06:12:53.159Z,2.00
2018-02-12T06:15:19.148Z,1.90
2018-02-12T06:17:45.148Z,1.80
2018-02-12T06:20:11.117Z,1.70
2018-02-12T06:22:37.121Z,1.60
2018-02-12T06:25:03.098Z,1.60
2018-02-12T06:27:29.100Z,1.60
2018-02-12T06:29:56.091Z,1.70
2018-02-12T06:32:22.055Z,1.70
2018-02-12T06:34:48.032Z,1.70
2018-02-12T06:37:14.783Z,1.50
2018-02-12T06:39:42.226Z,1.50
2018-02-12T06:42:08.199Z,1.50
2018-02-12T06:44:34.905Z,1.40
2018-02-12T06:47:00.916Z,1.30
2018-02-12T06:49:27.585Z,1.50
2018-02-12T06:51:53.793Z,1.50
2018-02-12T06:54:19.767Z,1.50
2018-02-12T06:56:45.728Z,1.50
2018-02-12T06:59:11.721Z,1.50
2018-02-12T07:01:37.687Z,1.50
2018-02-12T07:04:03.672Z,1.50
2018-02-12T07:06:29.707Z,1.50
2018-02-12T07:08:55.777Z,1.50
2018-02-12T07:11:21.743Z,1.70
2018-02-12T07:13:47.720Z,2.00
2018-02-12T07:16:13.689Z,2.30
2018-02-12T07:18:39.660Z,2.40
2018-02-12T07:21:06.356Z,2.00
2018-02-12T07:23:32.319Z,2.00
2018-02-12T07:25:58.300Z,2.10
2018-02-12T07:28:24.376Z,2.20
2018-02-12T07:30:50.348Z,2.40
2018-02-12T07:33:16.316Z,2.70
2018-02-12T07:35:42.283Z,3.20
2018-02-12T07:38:08.255Z,3.10
2018-02-12T07:40:34.236Z,3.40
2018-02-12T07:43:00.252Z,3.70
2018-02-12T07:45:26.261Z,4.10
2018-02-12T07:47:52.236Z,4.70
2018-02-12T07:50:18.275Z,5.40
2018-02-12T07:52:44.256Z,6.50
2018-02-12T07:55:10.211Z,7.40
2018-02-12T07:57:36.930Z,8.60
2018-02-12T08:00:02.929Z,8.60
2018-02-12T08:02:28.944Z,9.40
2018-02-12T08:04:55.680Z,10.40
2018-02-12T08:07:21.668Z,10.30
2018-02-12T08:09:47.703Z,10.50
2018-02-12T08:12:13.736Z,9.90
2018-02-12T08:14:39.672Z,9.00
2018-02-12T08:17:05.646Z,8.10
2018-02-12T08:19:32.373Z,6.80
2018-02-12T08:21:58.377Z,6.80
2018-02-12T08:24:24.400Z,6.60
2018-02-12T08:26:50.444Z,6.90
2018-02-12T08:29:16.468Z,7.90
2018-02-12T08:31:43.331Z,9.60
2018-02-12T08:34:16.352Z,9.50
2018-02-12T08:36:42.304Z,9.90
2018-02-12T08:39:08.320Z,9.80
2018-02-12T08:41:34.274Z,9.40
2018-02-12T08:44:00.273Z,9.20
2018-02-12T08:46:27.012Z,9.50
2018-02-12T08:48:53.751Z,9.80
2018-02-12T08:51:19.739Z,9.80
2018-02-12T08:53:45.709Z,9.50
2018-02-12T08:56:11.685Z,8.90
2018-02-12T08:58:38.387Z,7.60
2018-02-12T09:01:04.343Z,7.50
2018-02-12T09:03:30.344Z,6.90
2018-02-12T09:05:56.331Z,6.60
2018-02-12T09:08:23.065Z,6.20
2018-02-12T09:10:49.052Z,6.20
2018-02-12T09:13:15.111Z,6.20
2018-02-12T09:15:41.102Z,6.10
2018-02-12T09:18:07.804Z,6.50
2018-02-12T09:20:33.784Z,6.50
2018-02-12T09:23:00.552Z,6.70
2018-02-12T09:25:26.586Z,6.80
2018-02-12T09:27:52.572Z,6.60
2018-02-12T09:30:18.544Z,6.40
2018-02-12T09:32:45.259Z,6.10
2018-02-12T09:35:11.212Z,6.10
2018-02-12T09:37:37.179Z,6.00
2018-02-12T09:40:03.910Z,5.80
2018-02-12T09:42:29.887Z,5.80
2018-02-12T09:44:55.917Z,5.50
2018-02-12T09:47:21.920Z,5.60
2018-02-12T09:49:47.891Z,5.60
2018-02-12T09:52:13.852Z,5.70
2018-02-12T09:54:39.816Z,5.70
2018-02-12T09:57:05.776Z,5.80
2018-02-12T09:59:31.784Z,5.90
2018-02-12T10:01:57.816Z,5.90
2018-02-12T10:04:24.636Z,6.00
2018-02-12T10:06:50.601Z,5.90
2018-02-12T10:09:16.573Z,6.10
2018-02-12T10:11:43.285Z,6.00
2018-02-12T10:14:09.250Z,5.90
2018-02-12T10:16:35.957Z,6.30
2018-02-12T10:19:01.928Z,6.20
2018-02-12T10:21:27.938Z,6.30
2018-02-12T10:23:54.007Z,6.40
2018-02-12T10:26:20.748Z,6.50
2018-02-12T10:28:46.711Z,6.50
2018-02-12T10:31:13.426Z,6.20
2018-02-12T10:33:39.414Z,6.20
2018-02-12T10:36:05.376Z,6.10
2018-02-12T10:38:31.367Z,5.90
2018-02-12T10:40:58.144Z,6.20
2018-02-12T10:43:24.170Z,6.20
2018-02-12T10:45:50.123Z,6.40
2018-02-12T10:48:16.104Z,6.40
2018-02-12T10:50:42.083Z,6.60
2018-02-12T10:53:08.053Z,6.70
2018-02-12T10:55:34.022Z,7.00
2018-02-12T10:58:01.557Z,7.70
2018-02-12T11:00:27.588Z,7.70
2018-02-12T11:02:54.431Z,7.90
2018-02-12T11:05:20.400Z,7.80
2018-02-12T11:07:47.844Z,7.70
2018-02-12T11:10:13.831Z,7.70
2018-02-12T11:12:40.549Z,7.70
2018-02-12T11:15:06.526Z,7.70
2018-02-12T11:17:33.259Z,7.80
2018-02-12T11:20:00.042Z,8.00
2018-02-12T11:22:26.081Z,8.00
2018-02-12T11:24:52.057Z,8.10
2018-02-12T11:27:18.035Z,8.10
2018-02-12T11:29:44.794Z,8.20
2018-02-12T11:32:11.534Z,8.20
2018-02-12T11:34:38.299Z,8.20
2018-02-12T11:37:04.226Z,8.20
2018-02-12T11:39:30.972Z,8.10
2018-02-12T11:41:56.944Z,8.10
2018-02-12T11:44:22.928Z,8.00
2018-02-12T11:46:48.891Z,7.90
2018-02-12T11:49:15.636Z,7.80
2018-02-12T11:51:41.695Z,7.70
2018-02-12T11:54:08.420Z,7.70
2018-02-12T11:56:34.413Z,7.60
2018-02-12T11:59:00.401Z,7.60
2018-02-12T12:01:27.151Z,7.70
2018-02-12T12:03:53.128Z,7.70
2018-02-12T12:06:19.116Z,7.90
2018-02-12T12:08:45.124Z,8.00
2018-02-12T12:11:11.129Z,8.00
2018-02-12T12:13:37.083Z,7.80
2018-02-12T12:16:03.083Z,7.80
2018-02-12T12:18:29.862Z,7.80
2018-02-12T12:20:55.897Z,7.80
2018-02-12T12:23:21.870Z,8.00
2018-02-12T12:25:47.836Z,8.20
2018-02-12T12:28:14.592Z,8.70
2018-02-12T12:30:41.289Z,8.70
2018-02-12T12:33:07.270Z,8.70
2018-02-12T12:35:34.058Z,8.40
2018-02-12T12:38:00.137Z,8.40
2018-02-12T12:40:26.155Z,8.40
2018-02-12T12:42:52.124Z,8.30
2018-02-12T12:45:18.133Z,8.30
2018-02-12T12:47:44.113Z,8.30
2018-02-12T12:50:10.846Z,8.30
2018-02-12T12:52:37.574Z,8.30
2018-02-12T12:55:03.572Z,8.30
2018-02-12T12:57:29.575Z,8.10
2018-02-12T12:59:55.924Z,8.10
2018-02-12T13:02:21.881Z,8.20
2018-02-12T13:04:48.583Z,7.90
2018-02-12T13:07:14.551Z,7.90
2018-02-12T13:09:41.268Z,8.10
2018-02-12T13:12:07.684Z,8.10
2018-02-12T13:14:33.696Z,8.20
2018-02-12T13:17:00.389Z,7.70
2018-02-12T13:19:26.372Z,7.70
2018-02-12T13:21:53.127Z,7.60
2018-02-12T13:24:19.897Z,7.30
2018-02-12T13:26:46.080Z,7.30
2018-02-12T13:29:12.167Z,7.30
2018-02-12T13:31:38.178Z,7.10
2018-02-12T13:34:04.149Z,7.10
2018-02-12T13:36:30.127Z,7.00
2018-02-12T13:38:56.091Z,7.20
2018-02-12T13:41:22.798Z,7.40
2018-02-12T13:43:48.772Z,7.40
2018-02-12T13:46:14.744Z,7.50
2018-02-12T13:48:40.736Z,7.40
2018-02-12T13:51:06.752Z,7.50
2018-02-12T13:53:32.711Z,7.20
2018-02-12T13:55:58.874Z,6.80
2018-02-12T13:58:25.664Z,6.30
2018-02-12T14:00:51.641Z,6.30
2018-02-12T14:03:17.604Z,6.10
2018-02-12T14:05:43.722Z,6.10
2018-02-12T14:08:09.710Z,6.40
2018-02-12T14:10:35.707Z,6.80
2018-02-12T14:13:02.445Z,7.20
2018-02-12T14:15:28.425Z,7.20
2018-02-12T14:18:01.469Z,7.30
2018-02-12T14:20:27.444Z,7.30
2018-02-12T14:22:53.406Z,7.40
2018-02-12T14:25:19.384Z,7.30
2018-02-12T14:27:46.092Z,7.20
2018-02-12T14:30:12.118Z,7.20
2018-02-12T14:32:38.115Z,7.30
2018-02-12T14:35:04.823Z,7.30
2018-02-12T14:37:30.797Z,7.30
2018-02-12T14:39:56.801Z,7.40
2018-02-12T14:42:22.788Z,7.50
2018-02-12T14:44:49.516Z,7.50
2018-02-12T14:47:15.513Z,7.50
2018-02-12T14:49:41.516Z,7.40
2018-02-12T14:52:07.624Z,7.50
2018-02-12T14:54:33.607Z,7.50
2018-02-12T14:56:59.616Z,7.40
2018-02-12T14:59:25.584Z,7.40
2018-02-12T15:01:51.575Z,7.40
2018-02-12T15:04:18.312Z,6.90
2018-02-12T15:06:45.803Z,6.60
2018-02-12T15:09:12.548Z,6.50
2018-02-12T15:11:39.308Z,6.30
2018-02-12T15:14:06.118Z,6.10
2018-02-12T15:16:32.101Z,6.10
2018-02-12T15:18:58.806Z,5.80
2018-02-12T15:21:24.893Z,5.70
2018-02-12T15:23:50.848Z,5.50
2018-02-12T15:26:16.883Z,5.40
2018-02-12T15:28:42.888Z,5.30
2018-02-12T15:31:08.892Z,5.20
2018-02-12T15:33:35.755Z,5.00
2018-02-12T15:36:01.782Z,4.90
2018-02-12T15:38:28.499Z,4.80
2018-02-12T15:40:54.469Z,4.80
2018-02-12T15:43:21.197Z,4.60
2018-02-12T15:45:47.220Z,4.60
2018-02-12T15:48:13.188Z,4.50
2018-02-12T15:50:39.915Z,4.20
2018-02-12T15:53:05.912Z,4.20
2018-02-12T15:55:31.967Z,4.10
2018-02-12T15:57:57.951Z,4.10
2018-02-12T16:00:24.693Z,3.90
2018-02-12T16:02:50.722Z,3.90
2018-02-12T16:05:16.696Z,3.80
2018-02-12T16:07:42.659Z,3.70
2018-02-12T16:10:08.647Z,3.50
2018-02-12T16:12:35.374Z,3.50
2018-02-12T16:15:02.854Z,3.50
2018-02-12T16:17:28.822Z,3.50
2018-02-12T16:19:54.792Z,3.50
2018-02-12T16:22:20.800Z,3.50
2018-02-12T16:24:46.806Z,3.40
2018-02-12T16:27:13.516Z,3.40
2018-02-12T16:29:39.492Z,3.40
2018-02-12T16:32:06.205Z,3.60
2018-02-12T16:34:32.169Z,3.50
2018-02-12T16:36:58.145Z,3.60
2018-02-12T16:39:24.133Z,3.40
2018-02-12T16:41:50.280Z,3.30
2018-02-12T16:44:16.244Z,3.10
2018-02-12T16:46:42.272Z,3.00
2018-02-12T16:49:08.227Z,2.80
2018-02-12T16:51:34.272Z,2.80
2018-02-12T16:54:00.251Z,2.70
2018-02-12T16:56:26.227Z,2.70
2018-02-12T16:58:52.215Z,2.50
2018-02-12T17:01:18.219Z,2.30
2018-02-12T17:03:44.215Z,2.20
2018-02-12T17:06:10.949Z,2.00
2018-02-12T17:08:36.921Z,2.00
2018-02-12T17:11:02.884Z,2.00
2018-02-12T17:13:28.857Z,1.90
2018-02-12T17:15:54.962Z,1.80
2018-02-12T17:18:20.951Z,1.70
2018-02-12T17:20:47.684Z,1.60
2018-02-12T17:23:14.405Z,1.60
2018-02-12T17:25:40.393Z,1.60
2018-02-12T17:28:07.111Z,1.70
2018-02-12T17:30:33.099Z,1.70
2018-02-12T17:32:59.069Z,1.80
2018-02-12T17:35:25.072Z,1.80
2018-02-12T17:37:51.064Z,1.60
2018-02-12T17:40:17.356Z,1.60
2018-02-12T17:42:43.314Z,1.60
2018-02-12T17:45:09.290Z,1.60
2018-02-12T17:47:36.019Z,1.60
2018-02-12T17:50:02.004Z,1.60
2018-02-12T17:52:27.991Z,1.60
2018-02-12T17:54:54.707Z,1.30
2018-02-12T17:57:20.731Z,1.30
2018-02-12T17:59:46.721Z,1.20
2018-02-12T18:02:12.717Z,1.20
2018-02-12T18:04:38.688Z,1.10
2018-02-12T18:07:04.727Z,1.00
2018-02-12T18:09:30.712Z,0.80
2018-02-12T18:11:56.675Z,0.70
2018-02-12T18:14:22.659Z,0.60
2018-02-12T18:16:49.440Z,0.40
2018-02-12T18:19:15.408Z,0.40
2018-02-12T18:21:41.388Z,0.40
2018-02-12T18:24:07.368Z,0.30
2018-02-12T18:26:33.332Z,0.40
2018-02-12T18:28:59.372Z,0.40
2018-02-12T18:31:25.369Z,0.40
2018-02-12T18:33:51.425Z,0.40
2018-02-12T18:36:17.528Z,0.30
2018-02-12T18:38:43.504Z,0.20
2018-02-12T18:41:10.241Z,0.20
2018-02-12T18:43:36.200Z,0.20
2018-02-12T18:46:02.190Z,0.30
2018-02-12T18:48:28.151Z,0.30
2018-02-12T18:50:54.131Z,0.20
2018-02-12T18:53:20.919Z,0.10
2018-02-12T18:55:46.940Z,0.10
2018-02-12T18:58:12.912Z,0.10
2018-02-12T19:00:38.892Z,0.10
2018-02-12T19:03:05.606Z,0.00
2018-02-12T19:05:31.608Z,-0.10
2018-02-12T19:07:57.628Z,-0.10
2018-02-12T19:10:23.660Z,-0.10
2018-02-12T19:12:49.668Z,-0.10
2018-02-12T19:15:15.618Z,0.00
2018-02-12T19:17:42.355Z,-0.10
2018-02-12T19:20:08.340Z,-0.20
2018-02-12T19:22:34.328Z,-0.10
2018-02-12T19:25:00.291Z,-0.10
2018-02-12T19:27:26.333Z,0.00
2018-02-12T19:29:52.326Z,0.00
2018-02-12T19:32:18.364Z,0.10
2018-02-12T19:34:44.380Z,0.20
2018-02-12T19:37:10.360Z,0.40
2018-02-12T19:39:37.071Z,0.80
2018-02-12T19:42:03.054Z,0.80
2018-02-12T19:44:29.768Z,1.10
2018-02-12T19:46:55.849Z,1.10
2018-02-12T19:49:21.846Z,1.20
2018-02-12T19:51:48.632Z,1.20
2018-02-12T19:54:14.654Z,1.20
2018-02-12T19:56:41.384Z,1.00
2018-02-12T19:59:07.350Z,1.00
2018-02-12T20:01:34.120Z,1.00
2018-02-12T20:04:00.112Z,1.00
2018-02-12T20:06:26.851Z,0.90
2018-02-12T20:08:52.886Z,0.90
2018-02-12T20:11:18.888Z,0.90
2018-02-12T20:13:44.879Z,0.60
2018-02-12T20:16:10.859Z,0.50
2018-02-12T20:18:36.832Z,0.40
2018-02-12T20:21:02.808Z,0.30
2018-02-12T20:23:29.516Z,0.10
2018-02-12T20:25:55.507Z,0.10
2018-02-12T20:28:21.512Z,0.10
2018-02-12T20:30:47.526Z,0.20
2018-02-12T20:33:13.518Z,0.40
2018-02-12T20:35:39.516Z,0.40
2018-02-12T20:38:05.447Z,0.50
2018-02-12T20:40:32.161Z,0.50
2018-02-12T20:42:58.130Z,0.40
2018-02-12T20:45:24.122Z,0.50
2018-02-12T20:47:50.210Z,0.40
2018-02-12T20:50:16.183Z,0.30
2018-02-12T20:52:42.186Z,0.20
2018-02-12T20:55:09.213Z,0.10
2018-02-12T20:57:35.196Z,0.00
2018-02-12T21:00:01.933Z,-0.20
2018-02-12T21:02:27.920Z,-0.30
2018-02-12T21:04:53.933Z,-0.30
2018-02-12T21:07:19.948Z,-0.30
2018-02-12T21:09:46.668Z,-0.30
2018-02-12T21:12:12.803Z,-0.30
2018-02-12T21:14:38.792Z,-0.50
2018-02-12T21:17:04.757Z,-0.20
2018-02-12T21:19:30.726Z,-0.20
2018-02-12T21:21:56.726Z,-0.20
2018-02-12T21:24:22.717Z,-0.30
2018-02-12T21:26:49.476Z,-0.10
2018-02-12T21:29:16.211Z,-0.10
2018-02-12T21:31:42.180Z,-0.10
2018-02-12T21:34:08.140Z,-0.20
2018-02-12T21:36:34.110Z,-0.10
2018-02-12T21:39:00.148Z,-0.20
2018-02-12T21:41:26.172Z,-0.40
2018-02-12T21:43:52.232Z,-0.50
2018-02-12T21:46:18.279Z,-0.60
2018-02-12T21:48:45.020Z,-0.60
2018-02-12T21:51:11.029Z,-0.60
2018-02-12T21:53:37.216Z,-0.40
2018-02-12T21:56:03.197Z,-0.10
2018-02-12T21:58:29.161Z,-0.20
2018-02-12T22:00:55.253Z,-0.30
2018-02-12T22:03:21.296Z,-0.30
2018-02-12T22:05:47.350Z,-0.30
2018-02-12T22:08:13.345Z,-0.20
2018-02-12T22:10:39.306Z,-0.20
2018-02-12T22:13:05.293Z,-0.30
2018-02-12T22:15:31.247Z,-0.10
2018-02-12T22:17:58.015Z,-0.30
2018-02-12T22:20:24.023Z,-0.30
2018-02-12T22:22:50.772Z,-0.40
2018-02-12T22:25:17.484Z,-0.50
2018-02-12T22:27:43.441Z,-0.50
2018-02-12T22:30:10.894Z,-0.50
2018-02-12T22:32:36.874Z,-0.50
2018-02-12T22:35:03.595Z,-0.50
2018-02-12T22:37:29.567Z,-0.50
2018-02-12T22:39:56.320Z,-0.70
2018-02-12T22:42:23.077Z,-0.80
2018-02-12T22:44:49.075Z,-0.80
2018-02-12T22:47:15.802Z,-0.80
2018-02-12T22:49:41.764Z,-0.80
2018-02-12T22:52:07.740Z,-0.80
2018-02-12T22:54:33.763Z,-0.60
2018-02-12T22:57:00.472Z,-0.40
2018-02-12T22:59:26.439Z,-0.40
2018-02-12T23:01:53.165Z,-0.20
2018-02-12T23:04:19.966Z,-0.20
2018-02-12T23:06:46.012Z,-0.10
2018-02-12T23:09:11.969Z,0.10
2018-02-12T23:11:37.940Z,0.50
2018-02-12T23:14:03.905Z,0.60
2018-02-12T23:16:30.608Z,0.40
2018-02-12T23:18:56.580Z,0.40
2018-02-12T23:21:23.319Z,0.20
2018-02-12T23:23:50.828Z,0.20
2018-02-12T23:26:16.798Z,0.20
2018-02-12T23:28:42.772Z,0.40
2018-02-12T23:31:09.480Z,0.80
2018-02-12T23:33:35.459Z,0.80
2018-02-12T23:36:02.206Z,1.10
2018-02-12T23:38:28.172Z,1.00
2018-02-12T23:40:54.165Z,1.10
2018-02-12T23:43:20.177Z,1.20
2018-02-12T23:45:46.165Z,1.20
2018-02-12T23:48:12.149Z,1.40
2018-02-12T23:50:38.112Z,1.30
2018-02-12T23:53:04.080Z,1.30
2018-02-12T23:55:30.064Z,1.30
2018-02-12T23:57:56.106Z,1.30
